sensor_id;sensor_type;location;lat;lon;timestamp;P1;durP1;ratioP1;P2;durP2;ratioP2
69170;SDS011;56279;47.902;12.308;2023-03-23T00:00:44;5.40;;;2.20;;
69170;SDS011;56279;47.902;12.308;2023-03-23T00:02:45;5.15;;;2.47;;
69170;SDS011;56279;47.902;12.308;2023-03-23T00:04:47;4.47;;;2.33;;
69170;SDS011;56279;47.902;12.308;2023-03-23T00:06:49;4.93;;;2.40;;
69170;SDS011;56279;47.902;12.308;2023-03-23T00:08:51;4.90;;;2.08;;
69170;SDS011;56279;47.902;12.308;2023-03-23T00:10:57;4.33;;;2.20;;
69170;SDS011;56279;47.902;12.308;2023-03-23T00:12:58;6.47;;;2.22;;
69170;SDS011;56279;47.902;12.308;2023-03-23T00:15:04;5.93;;;2.17;;
69170;SDS011;56279;47.902;12.308;2023-03-23T00:17:14;5.50;;;2.40;;
69170;SDS011;56279;47.902;12.308;2023-03-23T00:19:17;6.70;;;2.78;;
69170;SDS011;56279;47.902;12.308;2023-03-23T00:21:23;5.83;;;2.60;;
69170;SDS011;56279;47.902;12.308;2023-03-23T00:23:26;4.45;;;2.35;;
69170;SDS011;56279;47.902;12.308;2023-03-23T00:25:27;3.80;;;1.77;;
69170;SDS011;56279;47.902;12.308;2023-03-23T00:27:28;6.28;;;2.40;;
69170;SDS011;56279;47.902;12.308;2023-03-23T00:29:29;4.88;;;2.20;;
69170;SDS011;56279;47.902;12.308;2023-03-23T00:31:33;4.83;;;1.90;;
69170;SDS011;56279;47.902;12.308;2023-03-23T00:33:37;3.80;;;2.03;;
69170;SDS011;56279;47.902;12.308;2023-03-23T00:35:41;4.43;;;2.25;;
69170;SDS011;56279;47.902;12.308;2023-03-23T00:37:45;3.97;;;2.00;;
69170;SDS011;56279;47.902;12.308;2023-03-23T00:39:46;5.30;;;2.17;;
69170;SDS011;56279;47.902;12.308;2023-03-23T00:41:47;6.03;;;2.43;;
69170;SDS011;56279;47.902;12.308;2023-03-23T00:43:49;4.00;;;2.00;;
69170;SDS011;56279;47.902;12.308;2023-03-23T00:45:52;3.80;;;1.92;;
69170;SDS011;56279;47.902;12.308;2023-03-23T00:47:53;8.80;;;2.47;;
69170;SDS011;56279;47.902;12.308;2023-03-23T00:49:54;5.18;;;2.50;;
69170;SDS011;56279;47.902;12.308;2023-03-23T00:51:57;8.27;;;2.97;;
69170;SDS011;56279;47.902;12.308;2023-03-23T00:53:59;4.63;;;2.20;;
69170;SDS011;56279;47.902;12.308;2023-03-23T00:56:00;4.45;;;2.28;;
69170;SDS011;56279;47.902;12.308;2023-03-23T00:58:03;5.05;;;2.50;;
69170;SDS011;56279;47.902;12.308;2023-03-23T01:00:04;3.47;;;2.05;;
69170;SDS011;56279;47.902;12.308;2023-03-23T01:02:10;6.63;;;2.20;;
69170;SDS011;56279;47.902;12.308;2023-03-23T01:04:11;4.93;;;2.35;;
69170;SDS011;56279;47.902;12.308;2023-03-23T01:06:13;6.55;;;2.13;;
69170;SDS011;56279;47.902;12.308;2023-03-23T01:08:17;4.60;;;1.98;;
69170;SDS011;56279;47.902;12.308;2023-03-23T01:10:19;6.10;;;2.47;;
69170;SDS011;56279;47.902;12.308;2023-03-23T01:12:20;3.13;;;2.10;;
69170;SDS011;56279;47.902;12.308;2023-03-23T01:14:24;4.10;;;2.10;;
69170;SDS011;56279;47.902;12.308;2023-03-23T01:16:30;5.03;;;2.40;;
69170;SDS011;56279;47.902;12.308;2023-03-23T01:18:31;5.60;;;2.35;;
69170;SDS011;56279;47.902;12.308;2023-03-23T01:20:32;7.47;;;2.30;;
69170;SDS011;56279;47.902;12.308;2023-03-23T01:22:36;7.87;;;2.80;;
69170;SDS011;56279;47.902;12.308;2023-03-23T01:24:38;4.22;;;2.22;;
69170;SDS011;56279;47.902;12.308;2023-03-23T01:26:40;4.90;;;2.40;;
69170;SDS011;56279;47.902;12.308;2023-03-23T01:28:41;4.53;;;1.90;;
69170;SDS011;56279;47.902;12.308;2023-03-23T01:30:43;7.63;;;2.30;;
69170;SDS011;56279;47.902;12.308;2023-03-23T01:32:45;4.03;;;1.93;;
69170;SDS011;56279;47.902;12.308;2023-03-23T01:34:46;3.95;;;2.30;;
69170;SDS011;56279;47.902;12.308;2023-03-23T01:36:47;4.50;;;2.10;;
69170;SDS011;56279;47.902;12.308;2023-03-23T01:38:49;3.45;;;2.00;;
69170;SDS011;56279;47.902;12.308;2023-03-23T01:40:51;5.85;;;2.28;;
69170;SDS011;56279;47.902;12.308;2023-03-23T01:42:52;4.77;;;2.27;;
69170;SDS011;56279;47.902;12.308;2023-03-23T01:46:55;4.22;;;2.10;;
69170;SDS011;56279;47.902;12.308;2023-03-23T01:49:00;4.70;;;2.50;;
69170;SDS011;56279;47.902;12.308;2023-03-23T01:51:10;5.38;;;2.20;;
69170;SDS011;56279;47.902;12.308;2023-03-23T01:53:16;6.03;;;2.70;;
69170;SDS011;56279;47.902;12.308;2023-03-23T01:55:19;5.88;;;2.60;;
69170;SDS011;56279;47.902;12.308;2023-03-23T01:57:23;4.50;;;2.40;;
69170;SDS011;56279;47.902;12.308;2023-03-23T01:59:29;6.97;;;2.50;;
69170;SDS011;56279;47.902;12.308;2023-03-23T02:01:49;6.78;;;2.72;;
69170;SDS011;56279;47.902;12.308;2023-03-23T02:03:54;6.17;;;2.63;;
69170;SDS011;56279;47.902;12.308;2023-03-23T02:05:58;3.80;;;2.53;;
69170;SDS011;56279;47.902;12.308;2023-03-23T02:08:13;7.40;;;3.05;;
69170;SDS011;56279;47.902;12.308;2023-03-23T02:10:16;6.18;;;2.53;;
69170;SDS011;56279;47.902;12.308;2023-03-23T02:12:18;6.43;;;2.55;;
69170;SDS011;56279;47.902;12.308;2023-03-23T02:14:23;6.40;;;2.70;;
69170;SDS011;56279;47.902;12.308;2023-03-23T02:16:30;5.50;;;2.42;;
69170;SDS011;56279;47.902;12.308;2023-03-23T02:19:18;9.65;;;2.63;;
69170;SDS011;56279;47.902;12.308;2023-03-23T02:24:30;5.40;;;2.63;;
69170;SDS011;56279;47.902;12.308;2023-03-23T02:31:05;4.90;;;2.45;;
69170;SDS011;56279;47.902;12.308;2023-03-23T02:33:33;6.93;;;3.13;;
69170;SDS011;56279;47.902;12.308;2023-03-23T02:35:39;9.45;;;3.95;;
69170;SDS011;56279;47.902;12.308;2023-03-23T02:37:48;9.13;;;3.97;;
69170;SDS011;56279;47.902;12.308;2023-03-23T02:39:56;6.70;;;3.40;;
69170;SDS011;56279;47.902;12.308;2023-03-23T02:42:17;6.95;;;3.38;;
69170;SDS011;56279;47.902;12.308;2023-03-23T02:44:24;5.82;;;2.92;;
69170;SDS011;56279;47.902;12.308;2023-03-23T02:46:31;5.75;;;2.90;;
69170;SDS011;56279;47.902;12.308;2023-03-23T02:48:36;7.88;;;3.85;;
69170;SDS011;56279;47.902;12.308;2023-03-23T02:50:42;6.45;;;3.33;;
69170;SDS011;56279;47.902;12.308;2023-03-23T02:52:46;8.98;;;3.90;;
69170;SDS011;56279;47.902;12.308;2023-03-23T02:54:51;10.57;;;4.32;;
69170;SDS011;56279;47.902;12.308;2023-03-23T02:56:54;7.63;;;3.63;;
69170;SDS011;56279;47.902;12.308;2023-03-23T02:59:01;7.32;;;3.50;;
69170;SDS011;56279;47.902;12.308;2023-03-23T03:03:37;6.75;;;3.85;;
69170;SDS011;56279;47.902;12.308;2023-03-23T03:07:53;6.00;;;3.30;;
69170;SDS011;56279;47.902;12.308;2023-03-23T03:10:13;9.73;;;3.57;;
69170;SDS011;56279;47.902;12.308;2023-03-23T03:13:01;10.77;;;3.60;;
69170;SDS011;56279;47.902;12.308;2023-03-23T03:17:58;10.57;;;4.00;;
69170;SDS011;56279;47.902;12.308;2023-03-23T03:20:13;5.72;;;3.45;;
69170;SDS011;56279;47.902;12.308;2023-03-23T03:22:16;9.03;;;3.90;;
69170;SDS011;56279;47.902;12.308;2023-03-23T03:24:22;6.90;;;3.35;;
69170;SDS011;56279;47.902;12.308;2023-03-23T03:26:26;6.80;;;3.53;;
69170;SDS011;56279;47.902;12.308;2023-03-23T03:28:35;6.70;;;3.08;;
69170;SDS011;56279;47.902;12.308;2023-03-23T03:30:37;6.53;;;3.25;;
69170;SDS011;56279;47.902;12.308;2023-03-23T03:32:43;7.60;;;3.40;;
69170;SDS011;56279;47.902;12.308;2023-03-23T03:34:49;9.15;;;3.65;;
69170;SDS011;56279;47.902;12.308;2023-03-23T03:36:53;9.55;;;3.55;;
69170;SDS011;56279;47.902;12.308;2023-03-23T03:39:06;5.70;;;3.25;;
69170;SDS011;56279;47.902;12.308;2023-03-23T03:41:11;6.43;;;3.13;;
69170;SDS011;56279;47.902;12.308;2023-03-23T03:43:12;6.13;;;3.40;;
69170;SDS011;56279;47.902;12.308;2023-03-23T03:45:15;6.75;;;3.85;;
69170;SDS011;56279;47.902;12.308;2023-03-23T03:47:17;7.65;;;4.18;;
69170;SDS011;56279;47.902;12.308;2023-03-23T03:49:19;10.23;;;3.90;;
69170;SDS011;56279;47.902;12.308;2023-03-23T03:51:21;7.95;;;3.92;;
69170;SDS011;56279;47.902;12.308;2023-03-23T03:53:25;6.80;;;3.17;;
69170;SDS011;56279;47.902;12.308;2023-03-23T03:55:27;5.07;;;3.13;;
69170;SDS011;56279;47.902;12.308;2023-03-23T03:57:29;6.85;;;3.50;;
69170;SDS011;56279;47.902;12.308;2023-03-23T03:59:50;6.57;;;2.97;;
69170;SDS011;56279;47.902;12.308;2023-03-23T04:02:10;8.00;;;3.42;;
69170;SDS011;56279;47.902;12.308;2023-03-23T04:04:14;6.20;;;3.73;;
69170;SDS011;56279;47.902;12.308;2023-03-23T04:06:16;6.30;;;3.25;;
69170;SDS011;56279;47.902;12.308;2023-03-23T04:08:18;6.70;;;3.17;;
69170;SDS011;56279;47.902;12.308;2023-03-23T04:10:20;5.32;;;2.60;;
69170;SDS011;56279;47.902;12.308;2023-03-23T04:12:28;5.47;;;2.80;;
69170;SDS011;56279;47.902;12.308;2023-03-23T04:14:30;6.43;;;2.65;;
69170;SDS011;56279;47.902;12.308;2023-03-23T04:16:45;6.10;;;2.80;;
69170;SDS011;56279;47.902;12.308;2023-03-23T04:18:46;6.78;;;3.05;;
69170;SDS011;56279;47.902;12.308;2023-03-23T04:20:51;5.82;;;3.25;;
69170;SDS011;56279;47.902;12.308;2023-03-23T04:22:56;6.60;;;3.15;;
69170;SDS011;56279;47.902;12.308;2023-03-23T04:25:00;8.53;;;4.00;;
69170;SDS011;56279;47.902;12.308;2023-03-23T04:27:07;6.70;;;3.22;;
69170;SDS011;56279;47.902;12.308;2023-03-23T04:29:09;5.45;;;3.15;;
69170;SDS011;56279;47.902;12.308;2023-03-23T04:31:36;5.95;;;3.13;;
69170;SDS011;56279;47.902;12.308;2023-03-23T04:33:47;6.70;;;2.97;;
69170;SDS011;56279;47.902;12.308;2023-03-23T04:35:49;5.33;;;2.63;;
69170;SDS011;56279;47.902;12.308;2023-03-23T04:38:13;5.00;;;2.75;;
69170;SDS011;56279;47.902;12.308;2023-03-23T04:40:18;5.70;;;2.72;;
69170;SDS011;56279;47.902;12.308;2023-03-23T04:42:31;5.72;;;2.75;;
69170;SDS011;56279;47.902;12.308;2023-03-23T04:45:03;5.00;;;2.88;;
69170;SDS011;56279;47.902;12.308;2023-03-23T04:47:11;6.80;;;2.63;;
69170;SDS011;56279;47.902;12.308;2023-03-23T04:49:21;5.82;;;2.92;;
69170;SDS011;56279;47.902;12.308;2023-03-23T04:51:26;6.32;;;2.65;;
69170;SDS011;56279;47.902;12.308;2023-03-23T04:53:30;6.93;;;3.20;;
69170;SDS011;56279;47.902;12.308;2023-03-23T04:55:33;7.03;;;3.10;;
69170;SDS011;56279;47.902;12.308;2023-03-23T04:57:42;7.97;;;3.47;;
69170;SDS011;56279;47.902;12.308;2023-03-23T05:00:07;8.02;;;2.95;;
69170;SDS011;56279;47.902;12.308;2023-03-23T05:02:15;6.15;;;3.00;;
69170;SDS011;56279;47.902;12.308;2023-03-23T05:04:19;8.68;;;3.42;;
69170;SDS011;56279;47.902;12.308;2023-03-23T05:06:33;4.85;;;2.92;;
69170;SDS011;56279;47.902;12.308;2023-03-23T05:08:39;4.93;;;2.88;;
69170;SDS011;56279;47.902;12.308;2023-03-23T05:10:41;5.85;;;3.00;;
69170;SDS011;56279;47.902;12.308;2023-03-23T05:12:48;7.03;;;3.10;;
69170;SDS011;56279;47.902;12.308;2023-03-23T05:14:50;6.25;;;3.08;;
69170;SDS011;56279;47.902;12.308;2023-03-23T05:17:00;5.60;;;3.35;;
69170;SDS011;56279;47.902;12.308;2023-03-23T05:19:02;5.50;;;3.22;;
69170;SDS011;56279;47.902;12.308;2023-03-23T05:21:07;4.88;;;2.65;;
69170;SDS011;56279;47.902;12.308;2023-03-23T05:23:12;4.88;;;2.70;;
69170;SDS011;56279;47.902;12.308;2023-03-23T05:25:15;5.50;;;2.83;;
69170;SDS011;56279;47.902;12.308;2023-03-23T05:27:25;4.75;;;2.92;;
69170;SDS011;56279;47.902;12.308;2023-03-23T05:29:35;5.03;;;2.70;;
69170;SDS011;56279;47.902;12.308;2023-03-23T05:31:41;4.93;;;2.80;;
69170;SDS011;56279;47.902;12.308;2023-03-23T05:33:44;5.55;;;2.60;;
69170;SDS011;56279;47.902;12.308;2023-03-23T05:36:06;4.65;;;2.90;;
69170;SDS011;56279;47.902;12.308;2023-03-23T05:38:32;5.95;;;2.85;;
69170;SDS011;56279;47.902;12.308;2023-03-23T05:40:34;5.68;;;2.78;;
69170;SDS011;56279;47.902;12.308;2023-03-23T05:42:55;5.13;;;2.78;;
69170;SDS011;56279;47.902;12.308;2023-03-23T05:45:07;5.47;;;2.25;;
69170;SDS011;56279;47.902;12.308;2023-03-23T05:47:11;8.25;;;2.88;;
69170;SDS011;56279;47.902;12.308;2023-03-23T05:49:16;7.63;;;2.63;;
69170;SDS011;56279;47.902;12.308;2023-03-23T05:51:19;5.37;;;2.70;;
69170;SDS011;56279;47.902;12.308;2023-03-23T05:53:22;4.95;;;2.47;;
69170;SDS011;56279;47.902;12.308;2023-03-23T05:55:25;9.32;;;2.85;;
69170;SDS011;56279;47.902;12.308;2023-03-23T05:57:36;6.25;;;3.80;;
69170;SDS011;56279;47.902;12.308;2023-03-23T05:59:41;5.85;;;3.53;;
69170;SDS011;56279;47.902;12.308;2023-03-23T06:01:48;7.60;;;3.87;;
69170;SDS011;56279;47.902;12.308;2023-03-23T06:03:52;6.60;;;3.60;;
69170;SDS011;56279;47.902;12.308;2023-03-23T06:05:58;8.50;;;3.78;;
69170;SDS011;56279;47.902;12.308;2023-03-23T06:08:07;9.02;;;3.72;;
69170;SDS011;56279;47.902;12.308;2023-03-23T06:10:10;6.95;;;3.80;;
69170;SDS011;56279;47.902;12.308;2023-03-23T06:12:13;7.80;;;3.47;;
69170;SDS011;56279;47.902;12.308;2023-03-23T06:14:33;6.80;;;3.13;;
69170;SDS011;56279;47.902;12.308;2023-03-23T06:16:36;5.95;;;2.70;;
69170;SDS011;56279;47.902;12.308;2023-03-23T06:18:43;6.22;;;2.47;;
69170;SDS011;56279;47.902;12.308;2023-03-23T06:20:58;6.13;;;2.33;;
69170;SDS011;56279;47.902;12.308;2023-03-23T06:23:19;5.23;;;2.30;;
69170;SDS011;56279;47.902;12.308;2023-03-23T06:25:22;6.03;;;3.28;;
69170;SDS011;56279;47.902;12.308;2023-03-23T06:27:24;6.13;;;2.97;;
69170;SDS011;56279;47.902;12.308;2023-03-23T06:29:26;9.57;;;3.88;;
69170;SDS011;56279;47.902;12.308;2023-03-23T06:31:31;7.22;;;3.53;;
69170;SDS011;56279;47.902;12.308;2023-03-23T06:33:37;8.20;;;3.57;;
69170;SDS011;56279;47.902;12.308;2023-03-23T06:35:51;13.65;;;4.30;;
69170;SDS011;56279;47.902;12.308;2023-03-23T06:38:17;13.43;;;4.32;;
69170;SDS011;56279;47.902;12.308;2023-03-23T06:40:26;14.43;;;4.75;;
69170;SDS011;56279;47.902;12.308;2023-03-23T06:42:30;13.45;;;5.90;;
69170;SDS011;56279;47.902;12.308;2023-03-23T06:44:52;12.47;;;3.83;;
69170;SDS011;56279;47.902;12.308;2023-03-23T06:46:54;8.43;;;4.32;;
69170;SDS011;56279;47.902;12.308;2023-03-23T06:49:00;11.32;;;3.80;;
69170;SDS011;56279;47.902;12.308;2023-03-23T06:51:11;11.65;;;3.65;;
69170;SDS011;56279;47.902;12.308;2023-03-23T06:53:15;8.45;;;4.22;;
69170;SDS011;56279;47.902;12.308;2023-03-23T06:55:22;7.97;;;4.30;;
69170;SDS011;56279;47.902;12.308;2023-03-23T06:57:24;7.10;;;3.60;;
69170;SDS011;56279;47.902;12.308;2023-03-23T06:59:26;12.40;;;4.10;;
69170;SDS011;56279;47.902;12.308;2023-03-23T07:01:28;7.18;;;3.22;;
69170;SDS011;56279;47.902;12.308;2023-03-23T07:03:35;11.55;;;4.03;;
69170;SDS011;56279;47.902;12.308;2023-03-23T07:05:38;7.30;;;4.13;;
69170;SDS011;56279;47.902;12.308;2023-03-23T07:07:41;9.05;;;4.18;;
69170;SDS011;56279;47.902;12.308;2023-03-23T07:10:06;12.45;;;4.03;;
69170;SDS011;56279;47.902;12.308;2023-03-23T07:12:10;11.73;;;3.80;;
69170;SDS011;56279;47.902;12.308;2023-03-23T07:14:19;12.30;;;5.05;;
69170;SDS011;56279;47.902;12.308;2023-03-23T07:16:23;8.17;;;4.07;;
69170;SDS011;56279;47.902;12.308;2023-03-23T07:18:27;10.50;;;4.30;;
69170;SDS011;56279;47.902;12.308;2023-03-23T07:20:33;7.88;;;3.70;;
69170;SDS011;56279;47.902;12.308;2023-03-23T07:22:35;9.20;;;4.72;;
69170;SDS011;56279;47.902;12.308;2023-03-23T07:24:47;6.80;;;3.40;;
69170;SDS011;56279;47.902;12.308;2023-03-23T07:27:01;6.73;;;3.33;;
69170;SDS011;56279;47.902;12.308;2023-03-23T07:29:03;6.75;;;3.70;;
69170;SDS011;56279;47.902;12.308;2023-03-23T07:31:12;10.55;;;3.85;;
69170;SDS011;56279;47.902;12.308;2023-03-23T07:33:14;7.35;;;3.40;;
69170;SDS011;56279;47.902;12.308;2023-03-23T07:35:16;5.63;;;3.40;;
69170;SDS011;56279;47.902;12.308;2023-03-23T07:37:27;6.57;;;3.30;;
69170;SDS011;56279;47.902;12.308;2023-03-23T07:39:29;7.45;;;3.75;;
69170;SDS011;56279;47.902;12.308;2023-03-23T07:41:33;5.88;;;3.28;;
69170;SDS011;56279;47.902;12.308;2023-03-23T07:43:48;6.10;;;3.20;;
69170;SDS011;56279;47.902;12.308;2023-03-23T07:45:56;7.63;;;3.28;;
69170;SDS011;56279;47.902;12.308;2023-03-23T07:48:02;4.47;;;2.60;;
69170;SDS011;56279;47.902;12.308;2023-03-23T07:50:05;3.75;;;2.35;;
69170;SDS011;56279;47.902;12.308;2023-03-23T07:52:12;7.47;;;2.97;;
69170;SDS011;56279;47.902;12.308;2023-03-23T07:54:14;6.60;;;2.85;;
69170;SDS011;56279;47.902;12.308;2023-03-23T07:56:28;4.78;;;2.83;;
69170;SDS011;56279;47.902;12.308;2023-03-23T07:58:52;5.50;;;2.63;;
69170;SDS011;56279;47.902;12.308;2023-03-23T08:01:15;4.82;;;2.33;;
69170;SDS011;56279;47.902;12.308;2023-03-23T08:03:23;7.18;;;3.17;;
69170;SDS011;56279;47.902;12.308;2023-03-23T08:05:45;5.50;;;2.80;;
69170;SDS011;56279;47.902;12.308;2023-03-23T08:08:21;5.38;;;2.85;;
69170;SDS011;56279;47.902;12.308;2023-03-23T08:10:52;5.40;;;2.90;;
69170;SDS011;56279;47.902;12.308;2023-03-23T08:13:20;5.45;;;2.85;;
69170;SDS011;56279;47.902;12.308;2023-03-23T08:15:43;5.20;;;2.75;;
69170;SDS011;56279;47.902;12.308;2023-03-23T08:18:15;6.97;;;2.75;;
69170;SDS011;56279;47.902;12.308;2023-03-23T08:20:35;7.38;;;2.95;;
69170;SDS011;56279;47.902;12.308;2023-03-23T08:23:07;5.80;;;2.80;;
69170;SDS011;56279;47.902;12.308;2023-03-23T08:25:11;6.68;;;2.92;;
69170;SDS011;56279;47.902;12.308;2023-03-23T08:27:41;5.47;;;2.88;;
69170;SDS011;56279;47.902;12.308;2023-03-23T08:29:56;8.20;;;3.50;;
69170;SDS011;56279;47.902;12.308;2023-03-23T08:32:27;5.90;;;3.03;;
69170;SDS011;56279;47.902;12.308;2023-03-23T08:34:57;7.43;;;3.20;;
69170;SDS011;56279;47.902;12.308;2023-03-23T08:37:17;6.47;;;2.95;;
69170;SDS011;56279;47.902;12.308;2023-03-23T08:39:37;6.13;;;3.10;;
69170;SDS011;56279;47.902;12.308;2023-03-23T08:42:11;6.18;;;3.20;;
69170;SDS011;56279;47.902;12.308;2023-03-23T08:44:30;8.98;;;3.08;;
69170;SDS011;56279;47.902;12.308;2023-03-23T08:46:55;9.30;;;3.00;;
69170;SDS011;56279;47.902;12.308;2023-03-23T08:49:11;5.95;;;2.92;;
69170;SDS011;56279;47.902;12.308;2023-03-23T08:51:15;6.05;;;3.10;;
69170;SDS011;56279;47.902;12.308;2023-03-23T08:53:52;5.55;;;3.15;;
69170;SDS011;56279;47.902;12.308;2023-03-23T08:56:17;5.82;;;3.10;;
69170;SDS011;56279;47.902;12.308;2023-03-23T08:58:19;7.93;;;3.50;;
69170;SDS011;56279;47.902;12.308;2023-03-23T09:00:39;5.72;;;3.38;;
69170;SDS011;56279;47.902;12.308;2023-03-23T09:03:04;6.60;;;3.20;;
69170;SDS011;56279;47.902;12.308;2023-03-23T09:05:23;5.82;;;3.05;;
69170;SDS011;56279;47.902;12.308;2023-03-23T09:08:00;6.03;;;3.42;;
69170;SDS011;56279;47.902;12.308;2023-03-23T09:10:03;8.00;;;4.13;;
69170;SDS011;56279;47.902;12.308;2023-03-23T09:12:06;6.28;;;3.30;;
69170;SDS011;56279;47.902;12.308;2023-03-23T09:14:10;6.80;;;3.70;;
69170;SDS011;56279;47.902;12.308;2023-03-23T09:16:12;7.63;;;3.85;;
69170;SDS011;56279;47.902;12.308;2023-03-23T09:18:16;6.65;;;3.47;;
69170;SDS011;56279;47.902;12.308;2023-03-23T09:20:24;8.57;;;3.90;;
69170;SDS011;56279;47.902;12.308;2023-03-23T09:22:28;6.95;;;3.78;;
69170;SDS011;56279;47.902;12.308;2023-03-23T09:24:30;6.30;;;3.45;;
69170;SDS011;56279;47.902;12.308;2023-03-23T09:26:31;7.30;;;3.25;;
69170;SDS011;56279;47.902;12.308;2023-03-23T09:28:33;6.60;;;3.53;;
69170;SDS011;56279;47.902;12.308;2023-03-23T09:30:34;7.63;;;4.30;;
69170;SDS011;56279;47.902;12.308;2023-03-23T09:32:38;8.57;;;3.92;;
69170;SDS011;56279;47.902;12.308;2023-03-23T09:34:40;7.50;;;4.10;;
69170;SDS011;56279;47.902;12.308;2023-03-23T09:36:42;6.97;;;3.90;;
69170;SDS011;56279;47.902;12.308;2023-03-23T09:38:44;8.35;;;4.50;;
69170;SDS011;56279;47.902;12.308;2023-03-23T09:40:48;9.53;;;4.60;;
69170;SDS011;56279;47.902;12.308;2023-03-23T09:42:57;9.20;;;4.13;;
69170;SDS011;56279;47.902;12.308;2023-03-23T09:45:02;8.77;;;4.65;;
69170;SDS011;56279;47.902;12.308;2023-03-23T09:47:18;8.60;;;4.65;;
69170;SDS011;56279;47.902;12.308;2023-03-23T09:49:32;9.60;;;4.68;;
69170;SDS011;56279;47.902;12.308;2023-03-23T09:53:58;11.88;;;4.70;;
69170;SDS011;56279;47.902;12.308;2023-03-23T09:56:08;8.95;;;5.00;;
69170;SDS011;56279;47.902;12.308;2023-03-23T09:58:24;10.43;;;4.35;;
69170;SDS011;56279;47.902;12.308;2023-03-23T10:00:35;6.13;;;3.45;;
69170;SDS011;56279;47.902;12.308;2023-03-23T10:02:48;5.33;;;2.80;;
69170;SDS011;56279;47.902;12.308;2023-03-23T10:05:12;5.50;;;2.63;;
69170;SDS011;56279;47.902;12.308;2023-03-23T10:07:34;4.93;;;2.70;;
69170;SDS011;56279;47.902;12.308;2023-03-23T10:09:35;4.70;;;2.10;;
69170;SDS011;56279;47.902;12.308;2023-03-23T10:16:55;4.28;;;2.50;;
69170;SDS011;56279;47.902;12.308;2023-03-23T10:19:24;5.85;;;2.92;;
69170;SDS011;56279;47.902;12.308;2023-03-23T10:21:34;5.78;;;2.72;;
69170;SDS011;56279;47.902;12.308;2023-03-23T10:26:04;9.90;;;3.70;;
69170;SDS011;56279;47.902;12.308;2023-03-23T10:28:35;7.07;;;3.20;;
69170;SDS011;56279;47.902;12.308;2023-03-23T10:30:39;5.55;;;3.00;;
69170;SDS011;56279;47.902;12.308;2023-03-23T10:35:23;5.50;;;3.33;;
69170;SDS011;56279;47.902;12.308;2023-03-23T10:37:32;6.67;;;3.43;;
69170;SDS011;56279;47.902;12.308;2023-03-23T10:39:44;7.90;;;3.15;;
69170;SDS011;56279;47.902;12.308;2023-03-23T10:41:50;6.78;;;3.55;;
69170;SDS011;56279;47.902;12.308;2023-03-23T10:43:52;5.78;;;3.33;;
69170;SDS011;56279;47.902;12.308;2023-03-23T10:45:57;6.65;;;3.33;;
69170;SDS011;56279;47.902;12.308;2023-03-23T10:48:14;6.00;;;3.30;;
69170;SDS011;56279;47.902;12.308;2023-03-23T10:50:22;7.60;;;3.75;;
69170;SDS011;56279;47.902;12.308;2023-03-23T10:52:36;6.60;;;3.90;;
69170;SDS011;56279;47.902;12.308;2023-03-23T10:54:46;6.35;;;3.47;;
69170;SDS011;56279;47.902;12.308;2023-03-23T10:56:53;6.97;;;3.60;;
69170;SDS011;56279;47.902;12.308;2023-03-23T10:58:55;8.50;;;3.90;;
69170;SDS011;56279;47.902;12.308;2023-03-23T11:00:57;6.38;;;3.55;;
69170;SDS011;56279;47.902;12.308;2023-03-23T11:03:06;6.13;;;3.08;;
69170;SDS011;56279;47.902;12.308;2023-03-23T11:05:35;6.25;;;2.75;;
69170;SDS011;56279;47.902;12.308;2023-03-23T11:07:41;5.88;;;3.13;;
69170;SDS011;56279;47.902;12.308;2023-03-23T11:09:56;5.60;;;2.60;;
69170;SDS011;56279;47.902;12.308;2023-03-23T11:11:59;6.05;;;3.00;;
69170;SDS011;56279;47.902;12.308;2023-03-23T11:14:46;6.05;;;2.88;;
69170;SDS011;56279;47.902;12.308;2023-03-23T11:16:34;6.90;;;3.10;;
69170;SDS011;56279;47.902;12.308;2023-03-23T11:18:41;6.13;;;3.50;;
69170;SDS011;56279;47.902;12.308;2023-03-23T11:20:47;6.07;;;3.50;;
69170;SDS011;56279;47.902;12.308;2023-03-23T11:22:51;7.18;;;3.80;;
69170;SDS011;56279;47.902;12.308;2023-03-23T11:24:55;8.32;;;3.75;;
69170;SDS011;56279;47.902;12.308;2023-03-23T11:27:00;6.32;;;3.13;;
69170;SDS011;56279;47.902;12.308;2023-03-23T11:29:14;7.25;;;3.42;;
69170;SDS011;56279;47.902;12.308;2023-03-23T11:31:21;7.00;;;3.43;;
69170;SDS011;56279;47.902;12.308;2023-03-23T11:33:24;7.15;;;3.53;;
69170;SDS011;56279;47.902;12.308;2023-03-23T11:35:29;5.68;;;3.03;;
69170;SDS011;56279;47.902;12.308;2023-03-23T11:37:35;7.22;;;3.22;;
69170;SDS011;56279;47.902;12.308;2023-03-23T11:42:00;7.43;;;3.53;;
69170;SDS011;56279;47.902;12.308;2023-03-23T11:44:08;8.77;;;3.40;;
69170;SDS011;56279;47.902;12.308;2023-03-23T11:48:44;5.68;;;3.33;;
69170;SDS011;56279;47.902;12.308;2023-03-23T11:50:57;7.32;;;3.75;;
69170;SDS011;56279;47.902;12.308;2023-03-23T11:55:22;7.53;;;4.15;;
69170;SDS011;56279;47.902;12.308;2023-03-23T11:57:27;8.88;;;4.78;;
69170;SDS011;56279;47.902;12.308;2023-03-23T11:59:32;10.77;;;4.65;;
69170;SDS011;56279;47.902;12.308;2023-03-23T12:10:41;8.48;;;4.45;;
69170;SDS011;56279;47.902;12.308;2023-03-23T12:13:14;7.13;;;4.53;;
69170;SDS011;56279;47.902;12.308;2023-03-23T12:15:35;7.83;;;4.00;;
69170;SDS011;56279;47.902;12.308;2023-03-23T12:18:05;6.30;;;4.20;;
69170;SDS011;56279;47.902;12.308;2023-03-23T12:22:31;6.28;;;3.88;;
69170;SDS011;56279;47.902;12.308;2023-03-23T12:29:39;14.23;;;6.97;;
69170;SDS011;56279;47.902;12.308;2023-03-23T12:43:59;8.75;;;4.32;;
69170;SDS011;56279;47.902;12.308;2023-03-23T12:46:12;7.93;;;4.45;;
69170;SDS011;56279;47.902;12.308;2023-03-23T12:48:24;7.55;;;4.18;;
69170;SDS011;56279;47.902;12.308;2023-03-23T12:51:00;7.00;;;4.20;;
69170;SDS011;56279;47.902;12.308;2023-03-23T12:53:22;7.32;;;3.80;;
69170;SDS011;56279;47.902;12.308;2023-03-23T12:55:36;6.85;;;3.45;;
69170;SDS011;56279;47.902;12.308;2023-03-23T12:57:48;6.90;;;3.55;;
69170;SDS011;56279;47.902;12.308;2023-03-23T13:02:34;8.87;;;3.67;;
69170;SDS011;56279;47.902;12.308;2023-03-23T13:04:45;7.32;;;3.60;;
69170;SDS011;56279;47.902;12.308;2023-03-23T13:06:52;7.07;;;3.90;;
69170;SDS011;56279;47.902;12.308;2023-03-23T13:08:58;7.40;;;3.40;;
69170;SDS011;56279;47.902;12.308;2023-03-23T13:11:10;6.88;;;3.63;;
69170;SDS011;56279;47.902;12.308;2023-03-23T13:13:21;7.37;;;4.00;;
69170;SDS011;56279;47.902;12.308;2023-03-23T13:17:48;7.85;;;4.20;;
69170;SDS011;56279;47.902;12.308;2023-03-23T13:22:49;7.32;;;3.53;;
69170;SDS011;56279;47.902;12.308;2023-03-23T13:25:20;7.67;;;3.93;;
69170;SDS011;56279;47.902;12.308;2023-03-23T13:27:37;7.57;;;4.20;;
69170;SDS011;56279;47.902;12.308;2023-03-23T13:29:43;9.30;;;4.93;;
69170;SDS011;56279;47.902;12.308;2023-03-23T13:31:47;9.95;;;4.72;;
69170;SDS011;56279;47.902;12.308;2023-03-23T13:33:51;9.80;;;4.10;;
69170;SDS011;56279;47.902;12.308;2023-03-23T13:36:02;9.80;;;4.03;;
69170;SDS011;56279;47.902;12.308;2023-03-23T13:38:12;10.77;;;4.40;;
69170;SDS011;56279;47.902;12.308;2023-03-23T13:40:26;8.85;;;3.38;;
69170;SDS011;56279;47.902;12.308;2023-03-23T13:42:32;9.23;;;3.75;;
69170;SDS011;56279;47.902;12.308;2023-03-23T13:44:44;12.10;;;4.32;;
69170;SDS011;56279;47.902;12.308;2023-03-23T13:49:33;7.95;;;4.45;;
69170;SDS011;56279;47.902;12.308;2023-03-23T13:52:21;7.20;;;4.10;;
69170;SDS011;56279;47.902;12.308;2023-03-23T13:56:42;8.18;;;3.90;;
69170;SDS011;56279;47.902;12.308;2023-03-23T14:01:37;6.30;;;3.22;;
69170;SDS011;56279;47.902;12.308;2023-03-23T14:03:45;6.95;;;3.33;;
69170;SDS011;56279;47.902;12.308;2023-03-23T14:10:14;6.93;;;3.70;;